createdAt,value
2023-04-04T00:00:44.062Z,13.66
2023-04-04T00:03:10.465Z,13.60
2023-04-04T00:05:39.141Z,13.53
2023-04-04T00:08:05.635Z,13.50
2023-04-04T00:10:31.978Z,13.45
2023-04-04T00:13:00.041Z,13.40
2023-04-04T00:15:26.394Z,13.34
2023-04-04T00:17:52.896Z,13.31
2023-04-04T00:20:19.238Z,13.27
2023-04-04T00:22:45.581Z,13.22
2023-04-04T00:25:11.861Z,13.18
2023-04-04T00:27:38.111Z,13.14
2023-04-04T00:30:04.425Z,13.10
2023-04-04T00:32:30.776Z,13.06
2023-04-04T00:34:57.194Z,13.02
2023-04-04T00:37:23.540Z,12.97
2023-04-04T00:39:52.074Z,12.93
2023-04-04T00:42:18.350Z,12.88
2023-04-04T00:44:44.742Z,12.84
2023-04-04T00:47:11.223Z,12.80
2023-04-04T00:49:37.585Z,12.76
2023-04-04T00:52:04.017Z,12.71
2023-04-04T00:54:30.384Z,12.67
2023-04-04T00:56:56.777Z,12.63
2023-04-04T00:59:24.316Z,12.58
2023-04-04T01:01:50.610Z,12.55
2023-04-04T01:04:17.097Z,12.50
2023-04-04T01:06:43.480Z,12.46
2023-04-04T01:09:11.417Z,12.43
2023-04-04T01:11:37.867Z,12.39
2023-04-04T01:14:04.300Z,12.37
2023-04-04T01:16:30.655Z,12.33
2023-04-04T01:18:57.018Z,12.30
2023-04-04T01:21:23.519Z,12.25
2023-04-04T01:23:50.071Z,12.21
2023-04-04T01:26:16.425Z,12.18
2023-04-04T01:28:42.818Z,12.15
2023-04-04T01:31:09.069Z,12.11
2023-04-04T01:33:35.390Z,12.07
2023-04-04T01:36:01.971Z,12.02
2023-04-04T01:38:29.596Z,11.99
2023-04-04T01:40:56.071Z,11.96
2023-04-04T01:43:22.440Z,11.93
2023-04-04T01:45:51.548Z,11.88
2023-04-04T01:48:18.042Z,11.84
2023-04-04T01:50:44.344Z,11.80
2023-04-04T01:53:10.641Z,11.77
2023-04-04T01:55:37.010Z,11.73
2023-04-04T01:58:03.356Z,11.70
2023-04-04T02:00:29.756Z,11.67
2023-04-04T02:02:56.251Z,11.63
2023-04-04T02:05:22.731Z,11.60
2023-04-04T02:07:49.147Z,11.55
2023-04-04T02:10:15.550Z,11.52
2023-04-04T02:12:41.919Z,11.48
2023-04-04T02:15:08.258Z,11.44
2023-04-04T02:17:34.715Z,11.41
2023-04-04T02:20:01.218Z,11.37
2023-04-04T02:22:27.570Z,11.33
2023-04-04T02:24:57.050Z,11.30
2023-04-04T02:27:23.524Z,11.26
2023-04-04T02:29:49.922Z,11.24
2023-04-04T02:32:18.223Z,11.22
2023-04-04T02:34:44.534Z,11.20
2023-04-04T02:37:10.988Z,11.17
2023-04-04T02:39:37.488Z,11.14
2023-04-04T02:42:06.884Z,11.11
2023-04-04T02:44:33.243Z,11.06
2023-04-04T02:46:59.696Z,11.04
2023-04-04T02:49:26.097Z,11.00
2023-04-04T02:51:52.760Z,10.98
2023-04-04T02:54:19.164Z,10.94
2023-04-04T02:56:45.489Z,10.91
2023-04-04T02:59:11.821Z,10.88
2023-04-04T03:01:38.184Z,10.84
2023-04-04T03:04:04.674Z,10.80
2023-04-04T03:06:30.999Z,10.76
2023-04-04T03:08:58.270Z,10.74
2023-04-04T03:11:24.502Z,10.70
2023-04-04T03:13:50.937Z,10.68
2023-04-04T03:16:17.301Z,10.64
2023-04-04T03:18:43.698Z,10.61
2023-04-04T03:21:10.174Z,10.59
2023-04-04T03:23:36.640Z,10.56
2023-04-04T03:26:02.997Z,10.53
2023-04-04T03:28:29.393Z,10.49
2023-04-04T03:31:01.701Z,10.46
2023-04-04T03:33:28.083Z,10.44
2023-04-04T03:35:54.417Z,10.40
2023-04-04T03:38:21.055Z,10.38
2023-04-04T03:40:47.420Z,10.33
2023-04-04T03:43:13.804Z,10.30
2023-04-04T03:45:40.176Z,10.26
2023-04-04T03:48:06.610Z,10.23
2023-04-04T03:50:32.952Z,10.20
2023-04-04T03:52:59.405Z,10.16
2023-04-04T03:55:25.706Z,10.08
2023-04-04T03:57:55.132Z,10.12
2023-04-04T04:00:21.622Z,10.10
2023-04-04T04:02:49.322Z,10.08
2023-04-04T04:05:15.742Z,10.04
2023-04-04T04:07:42.167Z,10.02
2023-04-04T04:10:08.462Z,9.99
2023-04-04T04:12:34.862Z,9.95
2023-04-04T04:15:01.246Z,9.93
2023-04-04T04:17:27.486Z,9.89
2023-04-04T04:19:53.764Z,9.87
2023-04-04T04:22:20.051Z,9.84
2023-04-04T04:24:46.320Z,9.81
2023-04-04T04:27:12.822Z,9.78
2023-04-04T04:29:39.210Z,9.76
2023-04-04T04:32:05.505Z,9.74
2023-04-04T04:34:31.945Z,9.72
2023-04-04T04:36:58.270Z,9.70
2023-04-04T04:39:25.790Z,9.68
2023-04-04T04:41:52.146Z,9.66
2023-04-04T04:44:18.457Z,9.63
2023-04-04T04:46:44.782Z,9.62
2023-04-04T04:49:11.276Z,9.60
2023-04-04T04:51:37.605Z,9.59
2023-04-04T04:54:03.937Z,9.58
2023-04-04T04:56:30.260Z,9.57
2023-04-04T04:58:56.664Z,9.55
2023-04-04T05:01:23.134Z,9.54
2023-04-04T05:03:52.152Z,9.55
2023-04-04T05:06:19.755Z,9.56
2023-04-04T05:08:46.032Z,9.61
2023-04-04T05:11:12.284Z,9.74
2023-04-04T05:13:38.653Z,9.76
2023-04-04T05:16:04.964Z,9.77
2023-04-04T05:18:31.619Z,9.85
2023-04-04T05:20:58.066Z,9.80
2023-04-04T05:23:24.398Z,9.74
2023-04-04T05:25:50.699Z,9.83
2023-04-04T05:28:17.167Z,9.90
2023-04-04T05:30:43.628Z,10.16
2023-04-04T05:33:10.227Z,10.77
2023-04-04T05:35:36.718Z,11.38
2023-04-04T05:38:03.288Z,11.90
2023-04-04T05:40:29.684Z,12.35
2023-04-04T05:42:58.230Z,12.76
2023-04-04T05:45:26.596Z,13.13
2023-04-04T05:47:53.070Z,13.53
2023-04-04T05:50:19.358Z,13.87
2023-04-04T05:52:45.700Z,14.21
2023-04-04T05:55:12.145Z,14.52
2023-04-04T05:57:38.688Z,14.81
2023-04-04T06:00:05.111Z,15.11
2023-04-04T06:02:31.550Z,15.35
2023-04-04T06:04:57.861Z,15.62
2023-04-04T06:07:24.293Z,15.74
2023-04-04T06:09:54.426Z,15.90
2023-04-04T06:12:21.132Z,16.14
2023-04-04T06:14:47.365Z,16.33
2023-04-04T06:17:13.738Z,16.51
2023-04-04T06:19:41.387Z,16.72
2023-04-04T06:22:07.684Z,16.91
2023-04-04T06:24:36.113Z,16.99
2023-04-04T06:27:03.287Z,17.05
2023-04-04T06:29:29.661Z,17.08
2023-04-04T06:31:56.130Z,17.19
2023-04-04T06:34:22.539Z,17.28
2023-04-04T06:36:49.005Z,17.42
2023-04-04T06:39:15.500Z,17.56
2023-04-04T06:41:42.329Z,17.67
2023-04-04T06:44:08.669Z,17.75
2023-04-04T06:46:36.365Z,17.87
2023-04-04T06:49:03.042Z,17.99
2023-04-04T06:51:29.766Z,18.11
2023-04-04T06:53:56.373Z,18.20
2023-04-04T06:56:23.346Z,18.34
2023-04-04T06:58:49.845Z,18.44
2023-04-04T07:01:16.390Z,18.52
2023-04-04T07:03:43.230Z,18.64
2023-04-04T07:06:09.653Z,18.70
2023-04-04T07:08:53.978Z,18.75
2023-04-04T07:11:24.173Z,18.94
2023-04-04T07:13:50.669Z,19.20
2023-04-04T07:16:17.133Z,19.39
2023-04-04T07:18:45.497Z,19.53
2023-04-04T07:21:12.206Z,19.60
2023-04-04T07:23:38.757Z,19.74
2023-04-04T07:26:05.131Z,19.92
2023-04-04T07:28:31.655Z,20.09
2023-04-04T07:31:03.098Z,20.26
2023-04-04T07:33:29.508Z,20.40
2023-04-04T07:36:00.380Z,20.56
2023-04-04T07:38:28.061Z,20.69
2023-04-04T07:40:54.610Z,20.83
2023-04-04T07:43:20.938Z,20.95
2023-04-04T07:45:48.902Z,21.10
2023-04-04T07:48:15.376Z,21.28
2023-04-04T07:50:43.123Z,21.43
2023-04-04T07:53:19.851Z,21.59
2023-04-04T07:55:46.424Z,21.53
2023-04-04T07:58:17.198Z,21.38
2023-04-04T08:00:47.022Z,21.24
2023-04-04T08:03:22.097Z,21.16
2023-04-04T08:05:50.177Z,21.15
2023-04-04T08:08:16.563Z,21.22
2023-04-04T08:10:44.168Z,21.27
2023-04-04T08:13:13.530Z,21.32
2023-04-04T08:15:45.704Z,21.43
2023-04-04T08:18:16.561Z,21.51
2023-04-04T08:20:50.789Z,21.60
2023-04-04T08:23:17.245Z,21.74
2023-04-04T08:25:48.232Z,21.52
2023-04-04T08:28:14.665Z,20.84
2023-04-04T08:30:41.622Z,19.86
2023-04-04T08:33:08.268Z,19.29
2023-04-04T08:35:40.308Z,18.91
2023-04-04T08:38:08.015Z,19.84
2023-04-04T08:40:34.972Z,20.48
2023-04-04T08:43:01.505Z,21.14
2023-04-04T08:45:28.350Z,20.43
2023-04-04T08:47:54.744Z,21.54
2023-04-04T08:50:21.269Z,22.07
2023-04-04T08:52:47.806Z,22.40
2023-04-04T08:55:18.637Z,22.44
2023-04-04T08:57:45.076Z,22.80
2023-04-04T09:00:11.773Z,23.10
2023-04-04T09:02:39.506Z,23.07
2023-04-04T09:05:10.860Z,22.33
2023-04-04T09:07:39.111Z,21.41
2023-04-04T09:10:06.255Z,21.29
2023-04-04T09:12:34.739Z,20.97
2023-04-04T09:15:01.223Z,20.85
2023-04-04T09:17:28.002Z,20.82
2023-04-04T09:19:54.614Z,20.78
2023-04-04T09:22:23.594Z,20.71
2023-04-04T09:24:50.017Z,20.67
2023-04-04T09:27:17.717Z,20.66
2023-04-04T09:29:44.245Z,20.74
2023-04-04T09:32:10.898Z,20.76
2023-04-04T09:34:37.474Z,20.75
2023-04-04T09:37:04.088Z,20.73
2023-04-04T09:39:30.846Z,20.63
2023-04-04T09:41:58.451Z,20.59
2023-04-04T09:44:24.882Z,20.61
2023-04-04T09:46:51.980Z,20.68
2023-04-04T09:49:18.393Z,20.64
2023-04-04T09:51:45.010Z,20.68
2023-04-04T09:54:18.786Z,20.71
2023-04-04T09:56:54.138Z,20.61
2023-04-04T09:59:31.796Z,20.56
2023-04-04T10:01:58.486Z,20.56
2023-04-04T10:04:25.464Z,20.49
2023-04-04T10:06:53.741Z,20.62
2023-04-04T10:09:22.212Z,20.65
2023-04-04T10:11:49.006Z,20.66
2023-04-04T10:14:17.996Z,20.67
2023-04-04T10:16:47.358Z,20.69
2023-04-04T10:19:16.363Z,20.72
2023-04-04T10:21:49.976Z,20.73
2023-04-04T10:24:16.422Z,20.73
2023-04-04T10:26:42.896Z,20.74
2023-04-04T10:29:09.313Z,20.70
2023-04-04T10:31:35.852Z,20.52
2023-04-04T10:34:07.303Z,20.33
2023-04-04T10:36:33.706Z,20.13
2023-04-04T10:39:00.649Z,19.92
2023-04-04T10:41:27.167Z,19.73
2023-04-04T10:43:53.707Z,19.62
2023-04-04T10:46:23.894Z,19.54
2023-04-04T10:48:50.419Z,19.45
2023-04-04T10:51:16.910Z,19.33
2023-04-04T10:53:43.637Z,19.22
2023-04-04T10:56:11.487Z,19.13
2023-04-04T10:58:37.940Z,19.03
2023-04-04T11:01:04.451Z,18.95
2023-04-04T11:03:32.203Z,18.89
2023-04-04T11:05:58.678Z,18.83
2023-04-04T11:08:25.290Z,18.79
2023-04-04T11:10:52.956Z,18.76
2023-04-04T11:13:19.509Z,18.72
2023-04-04T11:15:45.923Z,18.70
2023-04-04T11:18:30.065Z,18.69
2023-04-04T11:21:10.657Z,18.67
2023-04-04T11:23:37.124Z,18.64
2023-04-04T11:26:10.679Z,18.58
2023-04-04T11:28:38.858Z,18.51
2023-04-04T11:31:09.821Z,18.40
2023-04-04T11:33:40.046Z,18.28
2023-04-04T11:36:08.602Z,18.07
2023-04-04T11:38:35.417Z,17.94
2023-04-04T11:41:01.999Z,17.83
2023-04-04T11:46:20.407Z,17.69
2023-04-04T11:48:46.829Z,17.65
2023-04-04T11:51:20.863Z,17.60
2023-04-04T11:53:51.246Z,17.60
2023-04-04T11:56:17.925Z,17.66
2023-04-04T11:58:52.015Z,17.77
2023-04-04T12:01:24.142Z,17.85
2023-04-04T12:03:50.766Z,17.91
2023-04-04T12:06:17.305Z,17.92
2023-04-04T12:08:49.561Z,17.94
2023-04-04T12:11:21.027Z,17.93
2023-04-04T12:13:47.493Z,17.93
2023-04-04T12:16:14.315Z,17.92
2023-04-04T12:18:40.863Z,17.83
2023-04-04T12:21:07.285Z,17.78
2023-04-04T12:23:35.750Z,17.73
2023-04-04T12:26:02.358Z,17.78
2023-04-04T12:28:30.048Z,17.73
2023-04-04T12:30:56.872Z,17.72
2023-04-04T12:33:23.456Z,17.72
2023-04-04T12:35:50.000Z,17.85
2023-04-04T12:38:20.820Z,17.99
2023-04-04T12:40:49.352Z,18.15
2023-04-04T12:43:15.896Z,18.27
2023-04-04T12:45:42.422Z,18.37
2023-04-04T12:48:09.002Z,18.46
2023-04-04T12:50:35.404Z,18.53
2023-04-04T12:53:18.742Z,18.61
2023-04-04T12:55:52.479Z,18.70
2023-04-04T12:58:18.879Z,18.74
2023-04-04T13:00:45.282Z,18.75
2023-04-04T13:03:11.822Z,18.78
2023-04-04T13:05:38.289Z,18.80
2023-04-04T13:08:05.163Z,18.83
2023-04-04T13:10:31.598Z,18.85
2023-04-04T13:12:58.124Z,18.86
2023-04-04T13:15:24.597Z,18.89
2023-04-04T13:17:53.156Z,18.90
2023-04-04T13:20:21.808Z,18.84
2023-04-04T13:22:49.665Z,18.96
2023-04-04T13:25:16.005Z,18.99
2023-04-04T13:27:42.471Z,18.99
2023-04-04T13:30:10.131Z,19.00
2023-04-04T13:32:37.776Z,19.02
2023-04-04T13:35:04.154Z,19.04
2023-04-04T13:37:30.541Z,19.05
2023-04-04T13:39:57.122Z,19.07
2023-04-04T13:42:23.541Z,19.07
2023-04-04T13:44:50.001Z,19.09
2023-04-04T13:47:16.464Z,19.11
2023-04-04T13:49:42.820Z,19.12
2023-04-04T13:52:09.073Z,19.12
2023-04-04T13:54:35.464Z,19.14
2023-04-04T13:57:04.829Z,19.16
2023-04-04T13:59:31.573Z,19.16
2023-04-04T14:01:58.325Z,19.18
2023-04-04T14:04:24.902Z,19.18
2023-04-04T14:06:51.375Z,19.20
2023-04-04T14:09:17.854Z,19.13
2023-04-04T14:11:44.212Z,19.22
2023-04-04T14:14:10.539Z,19.22
2023-04-04T14:16:36.913Z,19.22
2023-04-04T14:19:03.198Z,19.23
2023-04-04T14:21:29.433Z,19.24
2023-04-04T14:23:55.742Z,19.25
2023-04-04T14:26:22.121Z,19.26
2023-04-04T14:28:48.704Z,19.25
2023-04-04T14:31:15.331Z,19.23
2023-04-04T14:33:41.839Z,19.21
2023-04-04T14:36:09.725Z,19.20
2023-04-04T14:38:36.122Z,19.18
2023-04-04T14:41:03.482Z,19.15
2023-04-04T14:43:32.169Z,19.14
2023-04-04T14:45:58.981Z,19.14
2023-04-04T14:48:25.619Z,19.14
2023-04-04T14:50:52.043Z,19.13
2023-04-04T14:53:18.359Z,19.13
2023-04-04T14:55:44.973Z,19.10
2023-04-04T14:58:13.443Z,19.09
2023-04-04T15:00:39.961Z,19.09
2023-04-04T15:03:07.350Z,19.07
2023-04-04T15:05:33.855Z,19.06
2023-04-04T15:08:01.298Z,19.05
2023-04-04T15:10:27.548Z,19.04
2023-04-04T15:12:53.835Z,19.04
2023-04-04T15:15:22.188Z,19.02
2023-04-04T15:17:49.460Z,19.00
2023-04-04T15:20:15.872Z,18.98
2023-04-04T15:22:42.230Z,18.97
2023-04-04T15:25:08.634Z,18.94
2023-04-04T15:27:36.226Z,18.93
2023-04-04T15:30:02.619Z,18.91
2023-04-04T15:32:31.161Z,18.89
2023-04-04T15:34:57.535Z,18.90
2023-04-04T15:37:23.931Z,18.89
2023-04-04T15:39:53.438Z,18.89
2023-04-04T15:42:20.449Z,18.86
2023-04-04T15:44:46.821Z,18.83
2023-04-04T15:47:13.362Z,18.82
2023-04-04T15:49:39.693Z,18.80
2023-04-04T15:52:06.033Z,18.77
2023-04-04T15:54:32.330Z,18.74
2023-04-04T15:56:58.692Z,18.73
2023-04-04T15:59:27.814Z,18.71
2023-04-04T16:01:55.744Z,18.69
2023-04-04T16:04:22.423Z,18.68
2023-04-04T16:06:48.793Z,18.66
2023-04-04T16:09:15.190Z,18.65
2023-04-04T16:11:41.553Z,18.64
2023-04-04T16:14:07.958Z,18.63
2023-04-04T16:16:38.610Z,18.60
2023-04-04T16:19:04.989Z,18.58
2023-04-04T16:21:35.412Z,18.55
2023-04-04T16:24:01.805Z,18.52
2023-04-04T16:26:28.162Z,18.50
2023-04-04T16:28:54.453Z,18.48
2023-04-04T16:31:20.771Z,18.47
2023-04-04T16:33:47.130Z,18.44
2023-04-04T16:36:13.557Z,18.43
2023-04-04T16:38:39.908Z,18.42
2023-04-04T16:41:06.253Z,18.40
2023-04-04T16:43:34.874Z,18.38
2023-04-04T16:46:01.283Z,18.36
2023-04-04T16:48:27.703Z,18.33
2023-04-04T16:50:54.124Z,18.31
2023-04-04T16:53:20.543Z,18.29
2023-04-04T16:55:47.094Z,18.26
2023-04-04T16:58:13.512Z,18.23
2023-04-04T17:00:40.110Z,18.22
2023-04-04T17:03:06.915Z,18.20
2023-04-04T17:05:34.406Z,18.17
2023-04-04T17:08:00.949Z,18.14
2023-04-04T17:10:27.483Z,18.11
2023-04-04T17:12:56.999Z,18.09
2023-04-04T17:15:23.305Z,18.06
2023-04-04T17:17:49.694Z,18.04
2023-04-04T17:20:16.213Z,18.02
2023-04-04T17:22:42.540Z,18.00
2023-04-04T17:25:08.922Z,17.97
2023-04-04T17:27:35.327Z,17.94
2023-04-04T17:30:06.060Z,17.92
2023-04-04T17:32:32.835Z,17.89
2023-04-04T17:35:00.574Z,17.87
2023-04-04T17:37:27.448Z,17.86
2023-04-04T17:39:54.160Z,17.82
2023-04-04T17:42:20.564Z,17.80
2023-04-04T17:44:47.027Z,17.77
2023-04-04T17:47:13.388Z,17.76
2023-04-04T17:49:39.775Z,17.73
2023-04-04T17:52:06.515Z,17.71
2023-04-04T17:54:33.107Z,17.68
2023-04-04T17:56:59.569Z,17.66
2023-04-04T17:59:25.876Z,17.65
2023-04-04T18:01:52.361Z,17.63
2023-04-04T18:04:18.657Z,17.61
2023-04-04T18:06:44.947Z,17.59
2023-04-04T18:09:11.377Z,17.57
2023-04-04T18:11:37.728Z,17.56
2023-04-04T18:14:04.102Z,17.55
2023-04-04T18:16:30.615Z,17.54
2023-04-04T18:18:57.045Z,17.53
2023-04-04T18:21:23.347Z,17.51
2023-04-04T18:23:49.657Z,17.49
2023-04-04T18:26:15.893Z,17.47
2023-04-04T18:28:42.402Z,17.44
2023-04-04T18:31:09.191Z,17.44
2023-04-04T18:33:35.609Z,17.44
2023-04-04T18:36:02.060Z,17.42
2023-04-04T18:38:28.382Z,17.40
2023-04-04T18:40:54.754Z,17.38
2023-04-04T18:43:21.173Z,17.37
2023-04-04T18:45:47.568Z,17.35
2023-04-04T18:48:13.928Z,17.33
2023-04-04T18:50:40.544Z,17.30
2023-04-04T18:53:07.281Z,17.28
2023-04-04T18:55:33.584Z,17.27
2023-04-04T18:57:59.921Z,17.24
2023-04-04T19:00:26.404Z,17.22
2023-04-04T19:02:52.898Z,17.20
2023-04-04T19:05:19.327Z,17.17
2023-04-04T19:07:47.621Z,17.15
2023-04-04T19:10:13.972Z,17.15
2023-04-04T19:12:40.510Z,17.13
2023-04-04T19:15:07.034Z,17.12
2023-04-04T19:17:35.385Z,17.09
2023-04-04T19:20:01.673Z,17.07
2023-04-04T19:22:27.940Z,17.06
2023-04-04T19:24:55.654Z,17.04
2023-04-04T19:27:22.049Z,17.03
2023-04-04T19:29:48.400Z,17.01
2023-04-04T19:32:16.127Z,16.99
2023-04-04T19:34:42.606Z,16.98
2023-04-04T19:37:08.984Z,16.97
2023-04-04T19:39:36.022Z,16.95
2023-04-04T19:42:02.608Z,16.94
2023-04-04T19:44:28.909Z,16.93
2023-04-04T19:46:55.280Z,16.91
2023-04-04T19:49:21.786Z,16.91
2023-04-04T19:51:48.126Z,16.91
2023-04-04T19:54:14.549Z,16.89
2023-04-04T19:56:40.782Z,16.88
2023-04-04T19:59:10.540Z,16.87
2023-04-04T20:01:40.566Z,16.87
2023-04-04T20:04:11.137Z,16.86
2023-04-04T20:06:37.473Z,16.84
2023-04-04T20:09:03.870Z,16.84
2023-04-04T20:11:30.229Z,16.82
2023-04-04T20:13:56.710Z,16.82
2023-04-04T20:16:23.290Z,16.81
2023-04-04T20:18:49.653Z,16.80
2023-04-04T20:21:16.217Z,16.78
2023-04-04T20:23:42.754Z,16.78
2023-04-04T20:26:09.412Z,16.77
2023-04-04T20:28:36.235Z,16.75
2023-04-04T20:31:02.670Z,16.74
2023-04-04T20:33:29.130Z,16.73
2023-04-04T20:35:55.471Z,16.73
2023-04-04T20:38:21.740Z,16.71
2023-04-04T20:40:48.241Z,16.71
2023-04-04T20:43:14.788Z,16.68
2023-04-04T20:45:45.606Z,16.69
2023-04-04T20:48:12.490Z,16.67
2023-04-04T20:50:39.092Z,16.66
2023-04-04T20:53:05.519Z,16.65
2023-04-04T20:55:31.745Z,16.64
2023-04-04T20:57:58.105Z,16.64
2023-04-04T21:00:24.502Z,16.63
2023-04-04T21:02:50.892Z,16.62
2023-04-04T21:05:17.510Z,16.62
2023-04-04T21:07:43.826Z,16.60
2023-04-04T21:10:10.323Z,16.58
2023-04-04T21:12:36.810Z,16.58
2023-04-04T21:15:03.127Z,16.58
2023-04-04T21:17:29.482Z,16.57
2023-04-04T21:19:58.886Z,16.51
2023-04-04T21:22:27.655Z,16.43
2023-04-04T21:24:54.033Z,16.32
2023-04-04T21:27:20.402Z,16.21
2023-04-04T21:29:46.829Z,16.10
2023-04-04T21:32:13.206Z,16.02
2023-04-04T21:34:39.796Z,15.93
2023-04-04T21:37:06.161Z,15.85
2023-04-04T21:39:32.592Z,15.78
2023-04-04T21:41:59.197Z,15.71
2023-04-04T21:44:25.661Z,15.64
2023-04-04T21:46:51.902Z,15.58
2023-04-04T21:49:18.614Z,15.51
2023-04-04T21:51:44.920Z,15.45
2023-04-04T21:54:12.721Z,15.40
2023-04-04T21:56:41.041Z,15.34
2023-04-04T21:59:07.436Z,15.28
2023-04-04T22:01:33.926Z,15.23
2023-04-04T22:04:00.252Z,15.19
2023-04-04T22:06:26.623Z,15.13
2023-04-04T22:08:53.063Z,15.08
2023-04-04T22:11:19.487Z,15.03
2023-04-04T22:13:45.759Z,14.97
2023-04-04T22:16:12.085Z,14.92
2023-04-04T22:18:38.426Z,14.86
2023-04-04T22:21:04.981Z,14.82
2023-04-04T22:23:31.484Z,14.77
2023-04-04T22:25:57.891Z,14.71
2023-04-04T22:28:24.465Z,14.66
2023-04-04T22:30:50.890Z,14.61
2023-04-04T22:33:17.321Z,14.57
2023-04-04T22:35:43.708Z,14.52
2023-04-04T22:38:10.170Z,14.48
2023-04-04T22:40:37.798Z,14.44
2023-04-04T22:43:04.746Z,14.39
2023-04-04T22:45:31.080Z,14.34
2023-04-04T22:47:57.420Z,14.30
2023-04-04T22:50:23.740Z,14.26
2023-04-04T22:52:50.671Z,14.22
2023-04-04T22:55:17.096Z,14.18
2023-04-04T22:57:45.585Z,14.13
2023-04-04T23:00:11.936Z,14.09
2023-04-04T23:02:38.384Z,14.05
2023-04-04T23:05:04.719Z,14.01
2023-04-04T23:07:31.280Z,13.97
2023-04-04T23:09:57.493Z,13.93
2023-04-04T23:12:23.892Z,13.89
2023-04-04T23:14:50.240Z,13.85
2023-04-04T23:17:16.592Z,13.80
2023-04-04T23:19:42.917Z,13.76
2023-04-04T23:22:09.495Z,13.72
2023-04-04T23:24:35.895Z,13.68
2023-04-04T23:27:02.509Z,13.65
2023-04-04T23:29:31.862Z,13.62
2023-04-04T23:31:58.273Z,13.57
2023-04-04T23:34:24.645Z,13.54
2023-04-04T23:36:51.165Z,13.50
2023-04-04T23:39:17.436Z,13.46
2023-04-04T23:41:43.905Z,13.42
2023-04-04T23:44:10.460Z,13.38
2023-04-04T23:46:36.829Z,13.34
2023-04-04T23:51:54.623Z,13.25
2023-04-04T23:54:21.183Z,13.20
2023-04-04T23:56:47.464Z,13.17
2023-04-04T23:59:13.741Z,13.11
